sensor_id;sensor_type;location;lat;lon;timestamp;P1;durP1;ratioP1;P2;durP2;ratioP2
72601;SDS011;60644;55.858;37.390;2023-05-10T00:01:28;13.33;;;5.53;;
72601;SDS011;60644;55.858;37.390;2023-05-10T00:03:53;15.50;;;6.07;;
72601;SDS011;60644;55.858;37.390;2023-05-10T00:06:19;10.90;;;5.25;;
72601;SDS011;60644;55.858;37.390;2023-05-10T00:08:45;16.75;;;5.97;;
72601;SDS011;60644;55.858;37.390;2023-05-10T00:11:11;12.13;;;4.53;;
72601;SDS011;60644;55.858;37.390;2023-05-10T00:13:36;12.47;;;5.23;;
72601;SDS011;60644;55.858;37.390;2023-05-10T00:16:02;16.23;;;4.43;;
72601;SDS011;60644;55.858;37.390;2023-05-10T00:18:28;10.73;;;4.03;;
72601;SDS011;60644;55.858;37.390;2023-05-10T00:20:53;9.35;;;3.95;;
72601;SDS011;60644;55.858;37.390;2023-05-10T00:23:19;7.70;;;3.87;;
72601;SDS011;60644;55.858;37.390;2023-05-10T00:25:45;16.35;;;6.35;;
72601;SDS011;60644;55.858;37.390;2023-05-10T00:28:10;16.67;;;7.43;;
72601;SDS011;60644;55.858;37.390;2023-05-10T00:30:36;15.23;;;6.68;;
72601;SDS011;60644;55.858;37.390;2023-05-10T00:33:02;11.35;;;5.10;;
72601;SDS011;60644;55.858;37.390;2023-05-10T00:35:28;13.63;;;4.40;;
72601;SDS011;60644;55.858;37.390;2023-05-10T00:37:54;11.93;;;4.50;;
72601;SDS011;60644;55.858;37.390;2023-05-10T00:40:19;10.27;;;4.37;;
72601;SDS011;60644;55.858;37.390;2023-05-10T00:42:51;14.90;;;7.45;;
72601;SDS011;60644;55.858;37.390;2023-05-10T00:45:17;13.68;;;7.30;;
72601;SDS011;60644;55.858;37.390;2023-05-10T00:47:43;9.27;;;4.70;;
72601;SDS011;60644;55.858;37.390;2023-05-10T00:50:09;17.52;;;6.63;;
72601;SDS011;60644;55.858;37.390;2023-05-10T00:52:34;10.03;;;4.70;;
72601;SDS011;60644;55.858;37.390;2023-05-10T00:55:00;11.25;;;4.63;;
72601;SDS011;60644;55.858;37.390;2023-05-10T00:57:26;11.80;;;4.70;;
72601;SDS011;60644;55.858;37.390;2023-05-10T00:59:52;8.53;;;4.13;;
72601;SDS011;60644;55.858;37.390;2023-05-10T01:02:17;9.83;;;4.17;;
72601;SDS011;60644;55.858;37.390;2023-05-10T01:04:43;10.07;;;4.88;;
72601;SDS011;60644;55.858;37.390;2023-05-10T01:07:09;12.33;;;4.60;;
72601;SDS011;60644;55.858;37.390;2023-05-10T01:09:34;10.45;;;4.07;;
72601;SDS011;60644;55.858;37.390;2023-05-10T01:12:00;10.23;;;4.60;;
72601;SDS011;60644;55.858;37.390;2023-05-10T01:14:28;11.48;;;5.20;;
72601;SDS011;60644;55.858;37.390;2023-05-10T01:16:54;11.55;;;5.63;;
72601;SDS011;60644;55.858;37.390;2023-05-10T01:19:23;13.07;;;5.03;;
72601;SDS011;60644;55.858;37.390;2023-05-10T01:24:38;10.80;;;5.35;;
72601;SDS011;60644;55.858;37.390;2023-05-10T01:27:19;12.82;;;5.55;;
72601;SDS011;60644;55.858;37.390;2023-05-10T01:32:40;11.77;;;4.97;;
72601;SDS011;60644;55.858;37.390;2023-05-10T01:37:50;11.45;;;5.40;;
72601;SDS011;60644;55.858;37.390;2023-05-10T01:40:29;14.88;;;5.70;;
72601;SDS011;60644;55.858;37.390;2023-05-10T01:43:00;10.82;;;4.28;;
72601;SDS011;60644;55.858;37.390;2023-05-10T01:47:54;13.77;;;5.40;;
72601;SDS011;60644;55.858;37.390;2023-05-10T01:50:25;11.18;;;5.35;;
72601;SDS011;60644;55.858;37.390;2023-05-10T01:52:54;9.27;;;4.40;;
72601;SDS011;60644;55.858;37.390;2023-05-10T01:55:20;10.68;;;5.00;;
72601;SDS011;60644;55.858;37.390;2023-05-10T01:57:48;11.60;;;4.70;;
72601;SDS011;60644;55.858;37.390;2023-05-10T02:00:16;10.88;;;4.13;;
72601;SDS011;60644;55.858;37.390;2023-05-10T02:02:49;10.38;;;4.78;;
72601;SDS011;60644;55.858;37.390;2023-05-10T02:05:15;10.07;;;4.80;;
72601;SDS011;60644;55.858;37.390;2023-05-10T02:07:41;11.35;;;4.35;;
72601;SDS011;60644;55.858;37.390;2023-05-10T02:10:08;8.47;;;3.30;;
72601;SDS011;60644;55.858;37.390;2023-05-10T02:12:35;8.80;;;3.15;;
72601;SDS011;60644;55.858;37.390;2023-05-10T02:15:05;8.95;;;3.75;;
72601;SDS011;60644;55.858;37.390;2023-05-10T02:17:32;8.10;;;4.00;;
72601;SDS011;60644;55.858;37.390;2023-05-10T02:20:00;8.60;;;3.67;;
72601;SDS011;60644;55.858;37.390;2023-05-10T02:22:29;11.37;;;4.17;;
72601;SDS011;60644;55.858;37.390;2023-05-10T02:24:55;12.77;;;5.13;;
72601;SDS011;60644;55.858;37.390;2023-05-10T02:27:23;10.38;;;4.63;;
72601;SDS011;60644;55.858;37.390;2023-05-10T02:29:49;9.93;;;4.40;;
72601;SDS011;60644;55.858;37.390;2023-05-10T02:32:15;12.75;;;5.03;;
72601;SDS011;60644;55.858;37.390;2023-05-10T02:34:41;11.10;;;3.70;;
72601;SDS011;60644;55.858;37.390;2023-05-10T02:37:07;8.93;;;3.80;;
72601;SDS011;60644;55.858;37.390;2023-05-10T02:39:34;10.38;;;5.20;;
72601;SDS011;60644;55.858;37.390;2023-05-10T02:42:00;11.15;;;4.60;;
72601;SDS011;60644;55.858;37.390;2023-05-10T02:44:27;11.27;;;5.18;;
72601;SDS011;60644;55.858;37.390;2023-05-10T02:46:54;9.27;;;4.53;;
72601;SDS011;60644;55.858;37.390;2023-05-10T02:49:21;12.55;;;4.72;;
72601;SDS011;60644;55.858;37.390;2023-05-10T02:51:50;10.93;;;5.22;;
72601;SDS011;60644;55.858;37.390;2023-05-10T02:54:20;12.13;;;4.97;;
72601;SDS011;60644;55.858;37.390;2023-05-10T02:56:50;10.32;;;4.93;;
72601;SDS011;60644;55.858;37.390;2023-05-10T02:59:16;12.00;;;5.22;;
72601;SDS011;60644;55.858;37.390;2023-05-10T03:01:42;12.18;;;5.05;;
72601;SDS011;60644;55.858;37.390;2023-05-10T03:04:08;12.20;;;4.37;;
72601;SDS011;60644;55.858;37.390;2023-05-10T03:06:34;12.95;;;5.10;;
72601;SDS011;60644;55.858;37.390;2023-05-10T03:09:02;11.65;;;4.25;;
72601;SDS011;60644;55.858;37.390;2023-05-10T03:16:35;12.13;;;4.38;;
72601;SDS011;60644;55.858;37.390;2023-05-10T03:21:43;10.10;;;4.78;;
72601;SDS011;60644;55.858;37.390;2023-05-10T03:24:12;11.95;;;5.38;;
72601;SDS011;60644;55.858;37.390;2023-05-10T03:26:41;11.18;;;5.00;;
72601;SDS011;60644;55.858;37.390;2023-05-10T03:29:14;15.20;;;5.10;;
72601;SDS011;60644;55.858;37.390;2023-05-10T03:31:40;10.88;;;4.80;;
72601;SDS011;60644;55.858;37.390;2023-05-10T03:34:06;10.43;;;5.22;;
72601;SDS011;60644;55.858;37.390;2023-05-10T03:36:32;11.13;;;5.30;;
72601;SDS011;60644;55.858;37.390;2023-05-10T03:38:58;10.65;;;4.47;;
72601;SDS011;60644;55.858;37.390;2023-05-10T03:41:24;12.93;;;5.60;;
72601;SDS011;60644;55.858;37.390;2023-05-10T03:43:51;11.95;;;5.10;;
72601;SDS011;60644;55.858;37.390;2023-05-10T03:46:16;15.82;;;5.60;;
72601;SDS011;60644;55.858;37.390;2023-05-10T03:48:45;8.93;;;3.43;;
72601;SDS011;60644;55.858;37.390;2023-05-10T03:51:11;7.80;;;2.97;;
72601;SDS011;60644;55.858;37.390;2023-05-10T03:53:37;9.55;;;3.45;;
72601;SDS011;60644;55.858;37.390;2023-05-10T03:56:03;8.03;;;3.50;;
72601;SDS011;60644;55.858;37.390;2023-05-10T03:58:28;8.95;;;3.08;;
72601;SDS011;60644;55.858;37.390;2023-05-10T04:00:54;7.67;;;3.33;;
72601;SDS011;60644;55.858;37.390;2023-05-10T04:03:20;9.68;;;3.00;;
72601;SDS011;60644;55.858;37.390;2023-05-10T04:05:46;10.93;;;4.33;;
72601;SDS011;60644;55.858;37.390;2023-05-10T04:08:12;9.90;;;3.70;;
72601;SDS011;60644;55.858;37.390;2023-05-10T04:10:37;12.33;;;4.77;;
72601;SDS011;60644;55.858;37.390;2023-05-10T04:13:03;12.43;;;4.32;;
72601;SDS011;60644;55.858;37.390;2023-05-10T04:15:29;12.13;;;4.70;;
72601;SDS011;60644;55.858;37.390;2023-05-10T04:17:54;14.68;;;5.20;;
72601;SDS011;60644;55.858;37.390;2023-05-10T04:20:20;14.03;;;5.17;;
72601;SDS011;60644;55.858;37.390;2023-05-10T04:22:45;13.07;;;4.63;;
72601;SDS011;60644;55.858;37.390;2023-05-10T04:25:11;7.60;;;2.88;;
72601;SDS011;60644;55.858;37.390;2023-05-10T04:27:39;6.22;;;2.25;;
72601;SDS011;60644;55.858;37.390;2023-05-10T04:30:04;7.17;;;2.73;;
72601;SDS011;60644;55.858;37.390;2023-05-10T04:32:32;8.27;;;2.65;;
72601;SDS011;60644;55.858;37.390;2023-05-10T04:34:58;6.30;;;1.83;;
72601;SDS011;60644;55.858;37.390;2023-05-10T04:37:23;6.32;;;2.38;;
72601;SDS011;60644;55.858;37.390;2023-05-10T04:39:49;7.72;;;2.80;;
72601;SDS011;60644;55.858;37.390;2023-05-10T04:42:15;8.80;;;3.08;;
72601;SDS011;60644;55.858;37.390;2023-05-10T04:44:41;8.15;;;2.83;;
72601;SDS011;60644;55.858;37.390;2023-05-10T04:47:06;7.60;;;3.57;;
72601;SDS011;60644;55.858;37.390;2023-05-10T04:49:32;9.05;;;2.55;;
72601;SDS011;60644;55.858;37.390;2023-05-10T04:51:58;9.40;;;3.47;;
72601;SDS011;60644;55.858;37.390;2023-05-10T04:54:23;8.85;;;2.92;;
72601;SDS011;60644;55.858;37.390;2023-05-10T04:56:49;6.13;;;2.30;;
72601;SDS011;60644;55.858;37.390;2023-05-10T04:59:15;7.68;;;2.40;;
72601;SDS011;60644;55.858;37.390;2023-05-10T05:01:41;9.32;;;3.10;;
72601;SDS011;60644;55.858;37.390;2023-05-10T05:04:07;7.67;;;2.17;;
72601;SDS011;60644;55.858;37.390;2023-05-10T05:06:33;8.38;;;2.40;;
72601;SDS011;60644;55.858;37.390;2023-05-10T05:08:58;7.23;;;2.40;;
72601;SDS011;60644;55.858;37.390;2023-05-10T05:11:24;8.77;;;2.55;;
72601;SDS011;60644;55.858;37.390;2023-05-10T05:13:51;6.68;;;2.20;;
72601;SDS011;60644;55.858;37.390;2023-05-10T05:16:17;7.90;;;2.77;;
72601;SDS011;60644;55.858;37.390;2023-05-10T05:18:43;8.98;;;2.50;;
72601;SDS011;60644;55.858;37.390;2023-05-10T05:21:15;6.63;;;2.37;;
72601;SDS011;60644;55.858;37.390;2023-05-10T05:23:41;5.88;;;2.03;;
72601;SDS011;60644;55.858;37.390;2023-05-10T05:26:07;7.18;;;2.20;;
72601;SDS011;60644;55.858;37.390;2023-05-10T05:28:32;5.93;;;1.70;;
72601;SDS011;60644;55.858;37.390;2023-05-10T05:31:02;7.47;;;1.85;;
72601;SDS011;60644;55.858;37.390;2023-05-10T05:33:28;8.48;;;2.03;;
72601;SDS011;60644;55.858;37.390;2023-05-10T05:35:54;6.07;;;2.00;;
72601;SDS011;60644;55.858;37.390;2023-05-10T05:38:20;9.40;;;1.63;;
72601;SDS011;60644;55.858;37.390;2023-05-10T05:40:45;6.97;;;1.50;;
72601;SDS011;60644;55.858;37.390;2023-05-10T05:43:11;7.57;;;1.47;;
72601;SDS011;60644;55.858;37.390;2023-05-10T05:45:36;5.68;;;1.20;;
72601;SDS011;60644;55.858;37.390;2023-05-10T05:48:02;6.53;;;1.40;;
72601;SDS011;60644;55.858;37.390;2023-05-10T05:50:28;6.25;;;1.60;;
72601;SDS011;60644;55.858;37.390;2023-05-10T05:52:53;7.73;;;1.70;;
72601;SDS011;60644;55.858;37.390;2023-05-10T05:55:19;10.03;;;1.93;;
72601;SDS011;60644;55.858;37.390;2023-05-10T05:57:45;5.85;;;1.42;;
72601;SDS011;60644;55.858;37.390;2023-05-10T06:00:11;6.80;;;1.70;;
72601;SDS011;60644;55.858;37.390;2023-05-10T06:02:39;5.82;;;1.63;;
72601;SDS011;60644;55.858;37.390;2023-05-10T06:05:05;8.45;;;2.22;;
72601;SDS011;60644;55.858;37.390;2023-05-10T06:07:31;6.20;;;1.80;;
72601;SDS011;60644;55.858;37.390;2023-05-10T06:09:57;6.10;;;1.52;;
72601;SDS011;60644;55.858;37.390;2023-05-10T06:12:22;6.87;;;1.40;;
72601;SDS011;60644;55.858;37.390;2023-05-10T06:14:48;5.80;;;1.58;;
72601;SDS011;60644;55.858;37.390;2023-05-10T06:17:13;5.33;;;1.40;;
72601;SDS011;60644;55.858;37.390;2023-05-10T06:19:39;6.77;;;1.50;;
72601;SDS011;60644;55.858;37.390;2023-05-10T06:22:05;8.65;;;1.88;;
72601;SDS011;60644;55.858;37.390;2023-05-10T06:24:30;6.53;;;1.50;;
72601;SDS011;60644;55.858;37.390;2023-05-10T06:26:56;5.18;;;1.20;;
72601;SDS011;60644;55.858;37.390;2023-05-10T06:29:21;6.03;;;1.50;;
72601;SDS011;60644;55.858;37.390;2023-05-10T06:31:47;13.13;;;2.33;;
72601;SDS011;60644;55.858;37.390;2023-05-10T06:34:13;5.78;;;1.50;;
72601;SDS011;60644;55.858;37.390;2023-05-10T06:36:38;5.77;;;1.30;;
72601;SDS011;60644;55.858;37.390;2023-05-10T06:39:04;6.43;;;1.60;;
72601;SDS011;60644;55.858;37.390;2023-05-10T06:41:31;5.95;;;1.30;;
72601;SDS011;60644;55.858;37.390;2023-05-10T06:43:56;5.50;;;1.40;;
72601;SDS011;60644;55.858;37.390;2023-05-10T06:46:22;7.57;;;1.90;;
72601;SDS011;60644;55.858;37.390;2023-05-10T06:48:47;7.37;;;1.50;;
72601;SDS011;60644;55.858;37.390;2023-05-10T06:51:13;6.43;;;1.60;;
72601;SDS011;60644;55.858;37.390;2023-05-10T06:53:39;6.68;;;1.40;;
72601;SDS011;60644;55.858;37.390;2023-05-10T06:56:04;4.93;;;1.70;;
72601;SDS011;60644;55.858;37.390;2023-05-10T06:58:30;5.95;;;1.45;;
72601;SDS011;60644;55.858;37.390;2023-05-10T07:01:04;6.72;;;1.30;;
72601;SDS011;60644;55.858;37.390;2023-05-10T07:03:31;6.95;;;1.25;;
72601;SDS011;60644;55.858;37.390;2023-05-10T07:06:05;6.27;;;2.00;;
72601;SDS011;60644;55.858;37.390;2023-05-10T07:08:33;6.75;;;1.40;;
72601;SDS011;60644;55.858;37.390;2023-05-10T07:11:02;4.53;;;1.30;;
72601;SDS011;60644;55.858;37.390;2023-05-10T07:13:29;4.55;;;1.30;;
72601;SDS011;60644;55.858;37.390;2023-05-10T07:15:55;5.45;;;1.40;;
72601;SDS011;60644;55.858;37.390;2023-05-10T07:18:21;3.73;;;0.87;;
72601;SDS011;60644;55.858;37.390;2023-05-10T07:20:47;6.38;;;1.38;;
72601;SDS011;60644;55.858;37.390;2023-05-10T07:23:12;5.53;;;1.30;;
72601;SDS011;60644;55.858;37.390;2023-05-10T07:25:38;7.47;;;1.43;;
72601;SDS011;60644;55.858;37.390;2023-05-10T07:28:04;6.38;;;1.70;;
72601;SDS011;60644;55.858;37.390;2023-05-10T07:30:29;7.10;;;1.60;;
72601;SDS011;60644;55.858;37.390;2023-05-10T07:32:55;5.53;;;1.40;;
72601;SDS011;60644;55.858;37.390;2023-05-10T07:35:21;6.57;;;0.98;;
72601;SDS011;60644;55.858;37.390;2023-05-10T07:37:47;7.10;;;1.30;;
72601;SDS011;60644;55.858;37.390;2023-05-10T07:40:12;5.70;;;1.52;;
72601;SDS011;60644;55.858;37.390;2023-05-10T07:42:38;5.57;;;1.40;;
72601;SDS011;60644;55.858;37.390;2023-05-10T07:45:04;4.22;;;1.10;;
72601;SDS011;60644;55.858;37.390;2023-05-10T07:47:31;4.73;;;1.40;;
72601;SDS011;60644;55.858;37.390;2023-05-10T07:49:57;6.10;;;1.40;;
72601;SDS011;60644;55.858;37.390;2023-05-10T07:52:23;6.10;;;1.40;;
72601;SDS011;60644;55.858;37.390;2023-05-10T07:54:49;6.93;;;1.23;;
72601;SDS011;60644;55.858;37.390;2023-05-10T07:57:15;4.85;;;1.33;;
72601;SDS011;60644;55.858;37.390;2023-05-10T07:59:43;4.85;;;1.13;;
72601;SDS011;60644;55.858;37.390;2023-05-10T08:02:09;3.33;;;0.80;;
72601;SDS011;60644;55.858;37.390;2023-05-10T08:04:35;4.90;;;1.70;;
72601;SDS011;60644;55.858;37.390;2023-05-10T08:07:01;2.93;;;0.80;;
72601;SDS011;60644;55.858;37.390;2023-05-10T08:09:27;5.93;;;0.90;;
72601;SDS011;60644;55.858;37.390;2023-05-10T08:11:52;4.15;;;1.10;;
72601;SDS011;60644;55.858;37.390;2023-05-10T08:14:18;3.63;;;0.90;;
72601;SDS011;60644;55.858;37.390;2023-05-10T08:16:44;3.92;;;0.90;;
72601;SDS011;60644;55.858;37.390;2023-05-10T08:19:09;4.43;;;0.87;;
72601;SDS011;60644;55.858;37.390;2023-05-10T08:21:38;5.00;;;0.68;;
72601;SDS011;60644;55.858;37.390;2023-05-10T08:24:05;5.63;;;1.20;;
72601;SDS011;60644;55.858;37.390;2023-05-10T08:26:32;3.70;;;0.73;;
72601;SDS011;60644;55.858;37.390;2023-05-10T08:28:57;7.13;;;1.45;;
72601;SDS011;60644;55.858;37.390;2023-05-10T08:31:23;5.03;;;1.37;;
72601;SDS011;60644;55.858;37.390;2023-05-10T08:33:49;6.57;;;1.58;;
72601;SDS011;60644;55.858;37.390;2023-05-10T08:36:16;7.28;;;1.33;;
72601;SDS011;60644;55.858;37.390;2023-05-10T08:38:47;6.83;;;1.70;;
72601;SDS011;60644;55.858;37.390;2023-05-10T08:41:13;10.95;;;2.38;;
72601;SDS011;60644;55.858;37.390;2023-05-10T08:43:39;5.53;;;1.70;;
72601;SDS011;60644;55.858;37.390;2023-05-10T08:46:06;4.97;;;1.25;;
72601;SDS011;60644;55.858;37.390;2023-05-10T08:48:33;8.00;;;1.58;;
72601;SDS011;60644;55.858;37.390;2023-05-10T08:50:59;6.13;;;1.30;;
72601;SDS011;60644;55.858;37.390;2023-05-10T08:53:26;4.30;;;1.08;;
72601;SDS011;60644;55.858;37.390;2023-05-10T08:55:52;6.82;;;1.20;;
72601;SDS011;60644;55.858;37.390;2023-05-10T08:58:19;4.07;;;0.98;;
72601;SDS011;60644;55.858;37.390;2023-05-10T09:00:44;4.53;;;0.97;;
72601;SDS011;60644;55.858;37.390;2023-05-10T09:03:11;3.95;;;0.90;;
72601;SDS011;60644;55.858;37.390;2023-05-10T09:05:37;3.78;;;0.77;;
72601;SDS011;60644;55.858;37.390;2023-05-10T09:08:03;4.47;;;1.02;;
72601;SDS011;60644;55.858;37.390;2023-05-10T09:10:29;9.07;;;2.47;;
72601;SDS011;60644;55.858;37.390;2023-05-10T09:12:56;7.45;;;1.98;;
72601;SDS011;60644;55.858;37.390;2023-05-10T09:15:22;5.55;;;1.30;;
72601;SDS011;60644;55.858;37.390;2023-05-10T09:17:47;4.43;;;1.20;;
72601;SDS011;60644;55.858;37.390;2023-05-10T09:20:14;3.85;;;1.02;;
72601;SDS011;60644;55.858;37.390;2023-05-10T09:22:40;3.47;;;1.00;;
72601;SDS011;60644;55.858;37.390;2023-05-10T09:27:32;3.90;;;0.90;;
72601;SDS011;60644;55.858;37.390;2023-05-10T09:29:58;4.65;;;1.00;;
72601;SDS011;60644;55.858;37.390;2023-05-10T09:32:42;6.97;;;1.63;;
72601;SDS011;60644;55.858;37.390;2023-05-10T09:35:12;16.02;;;7.38;;
72601;SDS011;60644;55.858;37.390;2023-05-10T09:37:41;8.43;;;2.88;;
72601;SDS011;60644;55.858;37.390;2023-05-10T09:40:08;5.50;;;1.20;;
72601;SDS011;60644;55.858;37.390;2023-05-10T09:42:36;4.05;;;0.98;;
72601;SDS011;60644;55.858;37.390;2023-05-10T09:45:04;3.60;;;1.00;;
72601;SDS011;60644;55.858;37.390;2023-05-10T09:47:32;4.68;;;0.95;;
72601;SDS011;60644;55.858;37.390;2023-05-10T09:49:58;4.93;;;1.00;;
72601;SDS011;60644;55.858;37.390;2023-05-10T09:55:11;7.18;;;1.25;;
72601;SDS011;60644;55.858;37.390;2023-05-10T09:57:37;4.90;;;1.10;;
72601;SDS011;60644;55.858;37.390;2023-05-10T10:00:03;3.80;;;0.95;;
72601;SDS011;60644;55.858;37.390;2023-05-10T10:02:39;5.23;;;1.00;;
72601;SDS011;60644;55.858;37.390;2023-05-10T10:05:06;4.47;;;0.93;;
72601;SDS011;60644;55.858;37.390;2023-05-10T10:07:32;3.40;;;1.00;;
72601;SDS011;60644;55.858;37.390;2023-05-10T10:09:58;7.90;;;1.30;;
72601;SDS011;60644;55.858;37.390;2023-05-10T10:12:24;3.23;;;0.87;;
72601;SDS011;60644;55.858;37.390;2023-05-10T10:14:50;4.97;;;1.17;;
72601;SDS011;60644;55.858;37.390;2023-05-10T10:17:16;3.30;;;0.73;;
72601;SDS011;60644;55.858;37.390;2023-05-10T10:19:42;27.52;;;13.27;;
72601;SDS011;60644;55.858;37.390;2023-05-10T10:22:08;4.53;;;1.50;;
72601;SDS011;60644;55.858;37.390;2023-05-10T10:24:37;3.67;;;0.80;;
72601;SDS011;60644;55.858;37.390;2023-05-10T10:29:52;4.93;;;1.02;;
72601;SDS011;60644;55.858;37.390;2023-05-10T10:32:25;4.57;;;0.73;;
72601;SDS011;60644;55.858;37.390;2023-05-10T10:34:53;2.70;;;0.90;;
72601;SDS011;60644;55.858;37.390;2023-05-10T10:37:19;2.90;;;0.70;;
72601;SDS011;60644;55.858;37.390;2023-05-10T10:39:47;4.38;;;0.70;;
72601;SDS011;60644;55.858;37.390;2023-05-10T10:42:13;2.88;;;0.70;;
72601;SDS011;60644;55.858;37.390;2023-05-10T10:44:38;2.97;;;0.90;;
72601;SDS011;60644;55.858;37.390;2023-05-10T10:47:07;3.78;;;1.02;;
72601;SDS011;60644;55.858;37.390;2023-05-10T10:52:30;3.95;;;1.00;;
72601;SDS011;60644;55.858;37.390;2023-05-10T10:55:03;5.57;;;1.17;;
72601;SDS011;60644;55.858;37.390;2023-05-10T10:57:54;5.70;;;1.20;;
72601;SDS011;60644;55.858;37.390;2023-05-10T11:02:56;3.03;;;0.80;;
72601;SDS011;60644;55.858;37.390;2023-05-10T11:07:57;4.10;;;0.95;;
72601;SDS011;60644;55.858;37.390;2023-05-10T11:10:24;3.63;;;0.87;;
72601;SDS011;60644;55.858;37.390;2023-05-10T11:13:03;4.20;;;0.82;;
72601;SDS011;60644;55.858;37.390;2023-05-10T11:15:35;4.63;;;0.90;;
72601;SDS011;60644;55.858;37.390;2023-05-10T11:20:50;4.47;;;0.88;;
72601;SDS011;60644;55.858;37.390;2023-05-10T11:23:15;4.77;;;0.90;;
72601;SDS011;60644;55.858;37.390;2023-05-10T11:25:43;4.03;;;0.80;;
72601;SDS011;60644;55.858;37.390;2023-05-10T11:28:09;3.45;;;0.88;;
72601;SDS011;60644;55.858;37.390;2023-05-10T11:30:36;4.20;;;0.90;;
72601;SDS011;60644;55.858;37.390;2023-05-10T11:33:02;2.85;;;0.88;;
72601;SDS011;60644;55.858;37.390;2023-05-10T11:35:28;4.10;;;0.90;;
72601;SDS011;60644;55.858;37.390;2023-05-10T11:37:53;3.28;;;0.90;;
72601;SDS011;60644;55.858;37.390;2023-05-10T11:40:21;3.80;;;0.80;;
72601;SDS011;60644;55.858;37.390;2023-05-10T11:42:47;4.73;;;0.80;;
72601;SDS011;60644;55.858;37.390;2023-05-10T11:45:12;3.63;;;1.05;;
72601;SDS011;60644;55.858;37.390;2023-05-10T11:47:38;4.90;;;1.10;;
72601;SDS011;60644;55.858;37.390;2023-05-10T11:50:04;4.53;;;0.75;;
72601;SDS011;60644;55.858;37.390;2023-05-10T11:52:35;5.97;;;1.00;;
72601;SDS011;60644;55.858;37.390;2023-05-10T11:55:01;3.63;;;1.10;;
72601;SDS011;60644;55.858;37.390;2023-05-10T11:57:30;4.15;;;1.00;;
72601;SDS011;60644;55.858;37.390;2023-05-10T11:59:56;4.43;;;0.80;;
72601;SDS011;60644;55.858;37.390;2023-05-10T12:02:22;5.28;;;1.10;;
72601;SDS011;60644;55.858;37.390;2023-05-10T12:04:48;3.80;;;0.98;;
72601;SDS011;60644;55.858;37.390;2023-05-10T12:07:14;6.07;;;1.00;;
72601;SDS011;60644;55.858;37.390;2023-05-10T12:09:43;3.60;;;0.80;;
72601;SDS011;60644;55.858;37.390;2023-05-10T12:12:10;8.60;;;2.58;;
72601;SDS011;60644;55.858;37.390;2023-05-10T12:14:36;5.10;;;1.70;;
72601;SDS011;60644;55.858;37.390;2023-05-10T12:17:02;4.10;;;1.00;;
72601;SDS011;60644;55.858;37.390;2023-05-10T12:19:30;6.60;;;1.60;;
72601;SDS011;60644;55.858;37.390;2023-05-10T12:22:04;6.60;;;1.70;;
72601;SDS011;60644;55.858;37.390;2023-05-10T12:24:30;5.10;;;1.52;;
72601;SDS011;60644;55.858;37.390;2023-05-10T12:26:55;5.30;;;1.20;;
72601;SDS011;60644;55.858;37.390;2023-05-10T12:29:21;4.50;;;0.90;;
72601;SDS011;60644;55.858;37.390;2023-05-10T12:31:54;4.77;;;0.83;;
72601;SDS011;60644;55.858;37.390;2023-05-10T12:34:29;5.65;;;2.10;;
72601;SDS011;60644;55.858;37.390;2023-05-10T12:36:55;6.88;;;1.20;;
72601;SDS011;60644;55.858;37.390;2023-05-10T12:39:21;2.88;;;0.77;;
72601;SDS011;60644;55.858;37.390;2023-05-10T12:41:47;4.80;;;1.00;;
72601;SDS011;60644;55.858;37.390;2023-05-10T12:44:13;4.20;;;0.98;;
72601;SDS011;60644;55.858;37.390;2023-05-10T12:46:38;5.60;;;1.03;;
72601;SDS011;60644;55.858;37.390;2023-05-10T12:49:04;3.53;;;0.77;;
72601;SDS011;60644;55.858;37.390;2023-05-10T12:51:30;3.70;;;0.80;;
72601;SDS011;60644;55.858;37.390;2023-05-10T12:53:56;3.78;;;1.02;;
72601;SDS011;60644;55.858;37.390;2023-05-10T12:56:22;4.23;;;0.93;;
72601;SDS011;60644;55.858;37.390;2023-05-10T12:58:47;5.20;;;1.00;;
72601;SDS011;60644;55.858;37.390;2023-05-10T13:01:14;5.05;;;1.00;;
72601;SDS011;60644;55.858;37.390;2023-05-10T13:03:39;3.03;;;0.70;;
72601;SDS011;60644;55.858;37.390;2023-05-10T13:06:05;3.88;;;1.20;;
72601;SDS011;60644;55.858;37.390;2023-05-10T13:08:31;4.43;;;1.10;;
72601;SDS011;60644;55.858;37.390;2023-05-10T13:10:59;5.50;;;0.85;;
72601;SDS011;60644;55.858;37.390;2023-05-10T13:13:25;4.53;;;1.03;;
72601;SDS011;60644;55.858;37.390;2023-05-10T13:15:51;5.72;;;1.15;;
72601;SDS011;60644;55.858;37.390;2023-05-10T13:18:17;4.23;;;0.87;;
72601;SDS011;60644;55.858;37.390;2023-05-10T13:20:43;4.33;;;0.90;;
72601;SDS011;60644;55.858;37.390;2023-05-10T13:23:09;3.95;;;0.90;;
72601;SDS011;60644;55.858;37.390;2023-05-10T13:25:35;6.32;;;1.27;;
72601;SDS011;60644;55.858;37.390;2023-05-10T13:28:01;3.37;;;1.00;;
72601;SDS011;60644;55.858;37.390;2023-05-10T13:30:27;7.05;;;1.10;;
72601;SDS011;60644;55.858;37.390;2023-05-10T13:32:54;6.03;;;1.10;;
72601;SDS011;60644;55.858;37.390;2023-05-10T13:35:20;4.23;;;1.00;;
72601;SDS011;60644;55.858;37.390;2023-05-10T13:37:45;5.65;;;1.35;;
72601;SDS011;60644;55.858;37.390;2023-05-10T13:40:11;5.60;;;1.00;;
72601;SDS011;60644;55.858;37.390;2023-05-10T13:42:37;4.00;;;1.10;;
72601;SDS011;60644;55.858;37.390;2023-05-10T13:45:02;5.07;;;1.40;;
72601;SDS011;60644;55.858;37.390;2023-05-10T13:47:33;4.32;;;1.10;;
72601;SDS011;60644;55.858;37.390;2023-05-10T13:49:59;5.05;;;1.25;;
72601;SDS011;60644;55.858;37.390;2023-05-10T13:52:26;4.68;;;1.00;;
72601;SDS011;60644;55.858;37.390;2023-05-10T13:54:52;3.20;;;0.90;;
72601;SDS011;60644;55.858;37.390;2023-05-10T13:57:20;3.80;;;0.70;;
72601;SDS011;60644;55.858;37.390;2023-05-10T13:59:46;3.95;;;0.90;;
72601;SDS011;60644;55.858;37.390;2023-05-10T14:02:12;4.27;;;1.00;;
72601;SDS011;60644;55.858;37.390;2023-05-10T14:04:38;3.75;;;0.85;;
72601;SDS011;60644;55.858;37.390;2023-05-10T14:07:04;5.20;;;0.85;;
72601;SDS011;60644;55.858;37.390;2023-05-10T14:09:30;2.63;;;0.77;;
72601;SDS011;60644;55.858;37.390;2023-05-10T14:11:56;4.63;;;1.20;;
72601;SDS011;60644;55.858;37.390;2023-05-10T14:14:22;3.83;;;0.93;;
72601;SDS011;60644;55.858;37.390;2023-05-10T14:16:47;5.50;;;0.90;;
72601;SDS011;60644;55.858;37.390;2023-05-10T14:19:13;4.60;;;1.15;;
72601;SDS011;60644;55.858;37.390;2023-05-10T14:21:39;4.73;;;1.07;;
72601;SDS011;60644;55.858;37.390;2023-05-10T14:24:05;4.45;;;0.95;;
72601;SDS011;60644;55.858;37.390;2023-05-10T14:26:32;3.60;;;0.85;;
72601;SDS011;60644;55.858;37.390;2023-05-10T14:28:59;5.57;;;1.40;;
72601;SDS011;60644;55.858;37.390;2023-05-10T14:31:25;4.77;;;1.53;;
72601;SDS011;60644;55.858;37.390;2023-05-10T14:33:52;5.20;;;1.20;;
72601;SDS011;60644;55.858;37.390;2023-05-10T14:36:17;3.53;;;1.00;;
72601;SDS011;60644;55.858;37.390;2023-05-10T14:38:43;4.97;;;0.90;;
72601;SDS011;60644;55.858;37.390;2023-05-10T14:41:08;4.63;;;0.80;;
72601;SDS011;60644;55.858;37.390;2023-05-10T14:43:34;4.80;;;1.20;;
72601;SDS011;60644;55.858;37.390;2023-05-10T14:46:01;6.78;;;1.60;;
72601;SDS011;60644;55.858;37.390;2023-05-10T14:48:27;5.38;;;1.30;;
72601;SDS011;60644;55.858;37.390;2023-05-10T14:50:52;4.07;;;1.10;;
72601;SDS011;60644;55.858;37.390;2023-05-10T14:53:18;4.77;;;1.37;;
72601;SDS011;60644;55.858;37.390;2023-05-10T14:55:44;5.40;;;1.63;;
72601;SDS011;60644;55.858;37.390;2023-05-10T14:58:09;5.83;;;1.70;;
72601;SDS011;60644;55.858;37.390;2023-05-10T15:00:35;4.45;;;1.30;;
72601;SDS011;60644;55.858;37.390;2023-05-10T15:03:01;4.80;;;1.20;;
72601;SDS011;60644;55.858;37.390;2023-05-10T15:05:27;4.90;;;1.40;;